createdAt,value
2017-12-08T00:00:37.395Z,72.97
2017-12-08T00:03:05.554Z,69.50
2017-12-08T00:05:33.773Z,78.80
2017-12-08T00:08:01.994Z,67.93
2017-12-08T00:10:30.156Z,78.73
2017-12-08T00:12:58.525Z,80.43
2017-12-08T00:15:27.528Z,72.82
2017-12-08T00:17:56.570Z,89.95
2017-12-08T00:20:24.791Z,71.53
2017-12-08T00:22:53.769Z,74.00
2017-12-08T00:25:21.990Z,77.50
2017-12-08T00:27:50.188Z,69.90
2017-12-08T00:30:18.468Z,46.53
2017-12-08T00:32:46.727Z,49.45
2017-12-08T00:35:14.947Z,29.33
2017-12-08T00:37:43.167Z,28.50
2017-12-08T00:40:11.376Z,19.48
2017-12-08T00:42:40.345Z,21.60
2017-12-08T00:45:08.688Z,13.23
2017-12-08T00:47:37.675Z,17.33
2017-12-08T00:50:06.644Z,17.37
2017-12-08T00:52:34.904Z,14.87
2017-12-08T00:55:03.099Z,13.40
2017-12-08T00:57:31.327Z,15.13
2017-12-08T00:59:59.521Z,26.90
2017-12-08T01:02:27.805Z,14.63
2017-12-08T01:04:56.053Z,13.20
2017-12-08T01:07:24.385Z,15.17
2017-12-08T01:09:52.608Z,13.13
2017-12-08T01:12:20.860Z,13.13
2017-12-08T01:14:49.939Z,12.07
2017-12-08T01:17:18.156Z,11.03
2017-12-08T01:19:46.412Z,11.30
2017-12-08T01:22:15.417Z,14.40
2017-12-08T01:24:43.801Z,10.30
2017-12-08T01:27:12.018Z,10.17
2017-12-08T01:29:40.277Z,8.10
2017-12-08T01:32:08.518Z,7.70
2017-12-08T01:34:37.631Z,12.07
2017-12-08T01:37:05.854Z,10.27
2017-12-08T01:39:34.094Z,12.80
2017-12-08T01:42:02.301Z,10.77
2017-12-08T01:44:30.562Z,13.73
2017-12-08T01:46:58.792Z,10.03
2017-12-08T01:49:27.032Z,14.67
2017-12-08T01:51:55.231Z,14.00
2017-12-08T01:54:24.272Z,9.43
2017-12-08T01:56:52.531Z,10.70
2017-12-08T01:59:20.769Z,10.43
2017-12-08T02:01:49.777Z,8.23
2017-12-08T02:04:18.768Z,8.03
2017-12-08T02:06:47.721Z,9.50
2017-12-08T02:09:15.947Z,9.77
2017-12-08T02:11:44.206Z,9.20
2017-12-08T02:14:13.386Z,9.83
2017-12-08T02:16:41.686Z,9.53
2017-12-08T02:19:10.640Z,7.60
2017-12-08T02:21:38.904Z,14.37
2017-12-08T02:24:07.139Z,11.57
2017-12-08T02:26:35.432Z,12.27
2017-12-08T02:29:03.643Z,10.47
2017-12-08T02:31:31.862Z,11.33
2017-12-08T02:34:00.862Z,9.50
2017-12-08T02:36:29.064Z,14.90
2017-12-08T02:38:57.393Z,9.97
2017-12-08T02:41:25.600Z,9.03
2017-12-08T02:43:53.879Z,13.97
2017-12-08T02:46:22.140Z,8.57
2017-12-08T02:48:51.119Z,12.33
2017-12-08T02:51:20.098Z,9.77
2017-12-08T02:53:48.333Z,11.07
2017-12-08T02:56:16.577Z,8.00
2017-12-08T02:58:45.617Z,10.63
2017-12-08T03:22:29.846Z,9.77
2017-12-08T03:24:58.111Z,12.20
2017-12-08T03:27:26.391Z,14.67
2017-12-08T03:29:54.564Z,14.23
2017-12-08T03:32:22.851Z,12.90
2017-12-08T03:34:51.150Z,12.73
2017-12-08T03:37:20.171Z,11.33
2017-12-08T03:39:48.413Z,12.47
2017-12-08T03:42:17.413Z,10.60
2017-12-08T03:44:46.547Z,12.37
2017-12-08T03:47:14.806Z,11.97
2017-12-08T03:49:43.046Z,16.37
2017-12-08T03:52:11.306Z,10.80
2017-12-08T03:54:39.542Z,10.80
2017-12-08T03:57:07.819Z,9.10
2017-12-08T03:59:36.124Z,9.00
2017-12-08T04:02:04.423Z,10.63
2017-12-08T04:04:32.623Z,9.57
2017-12-08T04:07:01.583Z,11.50
2017-12-08T04:09:29.841Z,9.30
2017-12-08T04:11:58.060Z,10.40
2017-12-08T04:14:27.136Z,11.93
2017-12-08T04:16:55.380Z,8.77
2017-12-08T04:19:23.679Z,11.23
2017-12-08T04:21:51.959Z,13.17
2017-12-08T04:24:20.217Z,11.43
2017-12-08T04:26:48.397Z,16.20
2017-12-08T04:29:16.605Z,12.70
2017-12-08T04:31:44.837Z,16.70
2017-12-08T04:34:13.048Z,10.17
2017-12-08T04:36:41.273Z,10.83
2017-12-08T04:39:09.496Z,11.90
2017-12-08T04:41:37.668Z,15.13
2017-12-08T04:44:05.913Z,10.63
2017-12-08T04:46:34.130Z,12.40
2017-12-08T04:49:03.096Z,11.77
2017-12-08T04:51:31.290Z,11.27
2017-12-08T04:53:59.508Z,15.13
2017-12-08T04:56:27.721Z,8.30
2017-12-08T04:58:55.985Z,11.00
2017-12-08T05:01:24.192Z,13.77
2017-12-08T05:03:52.381Z,16.07
2017-12-08T05:06:21.374Z,11.73
2017-12-08T05:08:49.577Z,15.97
2017-12-08T05:11:17.737Z,11.30
2017-12-08T05:13:46.674Z,15.13
2017-12-08T05:16:14.834Z,9.93
2017-12-08T05:18:42.997Z,16.55
2017-12-08T05:21:11.185Z,10.90
2017-12-08T05:23:39.342Z,11.33
2017-12-08T05:26:07.506Z,15.23
2017-12-08T05:28:35.673Z,13.52
2017-12-08T05:31:04.609Z,12.15
2017-12-08T05:33:32.774Z,11.53
2017-12-08T05:36:00.943Z,10.23
2017-12-08T05:38:29.093Z,12.53
2017-12-08T05:40:58.012Z,14.73
2017-12-08T05:43:26.167Z,13.23
2017-12-08T05:45:54.354Z,10.67
2017-12-08T05:48:22.539Z,10.70
2017-12-08T05:50:50.694Z,10.53
2017-12-08T05:53:18.845Z,11.70
2017-12-08T05:55:47.822Z,10.80
2017-12-08T05:58:15.977Z,11.40
2017-12-08T06:00:44.156Z,13.37
2017-12-08T06:03:12.323Z,10.60
2017-12-08T06:05:40.497Z,11.70
2017-12-08T06:08:08.643Z,14.60
2017-12-08T06:10:36.806Z,17.40
2017-12-08T06:13:05.002Z,10.43
2017-12-08T06:15:33.152Z,13.13
2017-12-08T06:18:01.312Z,20.50
2017-12-08T06:20:30.238Z,9.93
2017-12-08T06:22:58.401Z,15.43
2017-12-08T06:25:26.554Z,13.30
2017-12-08T06:27:55.478Z,9.80
2017-12-08T06:30:23.635Z,12.33
2017-12-08T06:32:51.788Z,12.07
2017-12-08T06:35:20.720Z,10.50
2017-12-08T06:37:48.870Z,10.43
2017-12-08T06:40:17.036Z,12.10
2017-12-08T06:42:45.959Z,12.10
2017-12-08T06:45:14.281Z,15.13
2017-12-08T06:47:42.442Z,13.13
2017-12-08T06:50:10.593Z,13.40
2017-12-08T06:52:38.746Z,11.93
2017-12-08T06:55:06.901Z,15.30
2017-12-08T06:57:35.838Z,12.03
2017-12-08T07:00:04.034Z,14.20
2017-12-08T07:02:32.201Z,11.13
2017-12-08T07:05:00.362Z,11.57
2017-12-08T07:07:28.545Z,13.93
2017-12-08T07:09:56.706Z,13.27
2017-12-08T07:12:24.863Z,9.80
2017-12-08T07:14:53.026Z,15.77
2017-12-08T07:17:21.194Z,13.07
2017-12-08T07:19:50.108Z,11.80
2017-12-08T07:22:18.265Z,11.23
2017-12-08T07:24:46.422Z,16.80
2017-12-08T07:27:15.333Z,9.40
2017-12-08T07:29:43.485Z,11.90
2017-12-08T07:32:12.425Z,11.40
2017-12-08T07:34:40.809Z,10.30
2017-12-08T07:37:08.973Z,15.40
2017-12-08T07:39:37.126Z,11.37
2017-12-08T07:42:05.293Z,10.73
2017-12-08T07:44:33.457Z,14.50
2017-12-08T07:47:02.383Z,13.10
2017-12-08T07:49:30.542Z,13.97
2017-12-08T07:51:58.690Z,17.70
2017-12-08T07:54:26.842Z,15.70
2017-12-08T07:56:55.039Z,14.70
2017-12-08T07:59:24.897Z,16.73
2017-12-08T08:01:53.057Z,14.00
2017-12-08T08:04:21.236Z,13.90
2017-12-08T08:06:49.418Z,12.63
2017-12-08T08:09:17.606Z,14.13
2017-12-08T08:11:45.785Z,13.90
2017-12-08T08:14:13.954Z,15.27
2017-12-08T08:16:42.206Z,14.23
2017-12-08T08:19:10.375Z,12.73
2017-12-08T08:21:38.547Z,15.63
2017-12-08T08:24:06.705Z,15.27
2017-12-08T08:26:35.663Z,14.23
2017-12-08T08:29:03.838Z,15.63
2017-12-08T08:31:31.994Z,13.30
2017-12-08T08:34:00.159Z,13.63
2017-12-08T08:36:28.329Z,12.33
2017-12-08T08:38:56.485Z,15.87
2017-12-08T08:41:24.641Z,19.17
2017-12-08T08:43:53.574Z,12.73
2017-12-08T08:46:21.753Z,13.93
2017-12-08T08:48:49.924Z,15.33
2017-12-08T08:51:18.080Z,14.70
2017-12-08T08:53:46.241Z,11.67
2017-12-08T08:56:15.159Z,16.27
2017-12-08T08:58:43.314Z,15.00
2017-12-08T09:01:11.482Z,18.53
2017-12-08T09:03:40.406Z,14.43
2017-12-08T09:06:08.562Z,18.03
2017-12-08T09:08:36.721Z,14.10
2017-12-08T09:11:05.648Z,14.30
2017-12-08T09:13:33.814Z,16.10
2017-12-08T09:16:01.973Z,12.30
2017-12-08T09:18:30.134Z,13.30
2017-12-08T09:20:59.058Z,12.13
2017-12-08T09:23:27.210Z,14.83
2017-12-08T09:25:56.133Z,15.23
2017-12-08T09:28:24.306Z,14.70
2017-12-08T09:30:52.466Z,15.53
2017-12-08T09:33:24.504Z,17.43
2017-12-08T09:35:53.429Z,15.60
2017-12-08T09:38:21.589Z,13.43
2017-12-08T09:40:49.758Z,15.70
2017-12-08T09:43:17.928Z,15.00
2017-12-08T09:45:46.106Z,15.27
2017-12-08T09:48:14.306Z,16.77
2017-12-08T09:50:42.491Z,12.90
2017-12-08T09:53:10.655Z,15.70
2017-12-08T09:55:38.827Z,17.40
2017-12-08T09:58:06.986Z,12.47
2017-12-08T10:00:35.176Z,17.17
2017-12-08T10:03:03.334Z,14.47
2017-12-08T10:05:31.502Z,13.80
2017-12-08T10:07:59.658Z,19.43
2017-12-08T10:10:28.589Z,18.40
2017-12-08T10:12:56.745Z,17.77
2017-12-08T10:15:24.910Z,15.30
2017-12-08T10:17:53.867Z,14.97
2017-12-08T10:20:22.034Z,13.60
2017-12-08T10:22:50.194Z,12.57
2017-12-08T10:25:18.358Z,15.00
2017-12-08T10:27:46.551Z,13.80
2017-12-08T10:30:14.766Z,14.37
2017-12-08T10:32:43.748Z,15.30
2017-12-08T10:35:11.894Z,14.80
2017-12-08T10:37:40.074Z,15.53
2017-12-08T10:40:08.234Z,19.90
2017-12-08T10:42:36.395Z,15.00
2017-12-08T10:45:04.575Z,16.87
2017-12-08T10:47:32.738Z,15.63
2017-12-08T10:50:00.927Z,18.50
2017-12-08T10:52:29.086Z,30.43
2017-12-08T10:54:57.245Z,15.97
2017-12-08T10:57:25.417Z,14.90
2017-12-08T10:59:53.610Z,19.50
2017-12-08T11:02:21.773Z,16.77
2017-12-08T11:04:49.935Z,17.00
2017-12-08T11:07:18.867Z,23.37
2017-12-08T11:09:47.031Z,19.27
2017-12-08T11:12:15.193Z,13.03
2017-12-08T11:14:43.358Z,14.30
2017-12-08T11:17:11.538Z,19.00
2017-12-08T11:19:39.780Z,20.97
2017-12-08T11:22:08.702Z,20.13
2017-12-08T11:24:36.857Z,18.33
2017-12-08T11:27:05.787Z,21.07
2017-12-08T11:29:33.985Z,20.60
2017-12-08T11:32:02.162Z,19.03
2017-12-08T11:34:30.327Z,21.57
2017-12-08T11:36:58.495Z,15.17
2017-12-08T11:39:26.649Z,16.70
2017-12-08T11:41:54.806Z,18.40
2017-12-08T11:44:22.979Z,19.70
2017-12-08T11:46:51.901Z,19.67
2017-12-08T11:49:20.090Z,23.60
2017-12-08T11:51:48.268Z,20.50
2017-12-08T11:54:16.427Z,21.90
2017-12-08T11:56:44.598Z,21.87
2017-12-08T11:59:12.758Z,17.07
2017-12-08T12:01:40.916Z,20.53
2017-12-08T12:04:09.842Z,18.57
2017-12-08T12:06:38.030Z,20.27
2017-12-08T12:09:06.188Z,21.80
2017-12-08T12:11:34.362Z,26.30
2017-12-08T12:14:02.553Z,23.30
2017-12-08T12:16:30.720Z,15.40
2017-12-08T12:18:58.880Z,18.67
2017-12-08T12:21:27.035Z,22.13
2017-12-08T12:23:55.228Z,21.97
2017-12-08T12:26:23.450Z,22.50
2017-12-08T12:28:51.601Z,29.70
2017-12-08T12:31:19.768Z,24.83
2017-12-08T12:33:47.931Z,26.13
2017-12-08T12:36:16.087Z,31.57
2017-12-08T12:38:44.252Z,25.60
2017-12-08T12:41:13.185Z,22.40
2017-12-08T12:43:41.381Z,26.10
2017-12-08T12:46:09.577Z,24.10
2017-12-08T12:48:38.502Z,36.70
2017-12-08T12:51:06.653Z,29.97
2017-12-08T12:53:35.591Z,26.90
2017-12-08T12:56:03.769Z,24.60
2017-12-08T12:58:31.920Z,23.40
2017-12-08T13:01:00.090Z,27.63
2017-12-08T13:03:28.250Z,23.83
2017-12-08T13:05:57.175Z,24.60
2017-12-08T13:08:25.335Z,27.50
2017-12-08T13:10:53.544Z,21.60
2017-12-08T13:13:21.673Z,19.10
2017-12-08T13:15:49.841Z,22.00
2017-12-08T13:18:18.769Z,25.43
2017-12-08T13:20:46.969Z,20.73
2017-12-08T13:23:15.143Z,17.53
2017-12-08T13:25:43.392Z,23.17
2017-12-08T13:28:11.549Z,21.07
2017-12-08T13:30:39.711Z,20.80
2017-12-08T13:33:07.862Z,19.77
2017-12-08T13:35:36.828Z,21.23
2017-12-08T13:38:04.993Z,20.07
2017-12-08T13:40:33.158Z,17.27
2017-12-08T13:43:01.322Z,20.70
2017-12-08T13:45:29.478Z,21.83
2017-12-08T13:47:57.642Z,24.47
2017-12-08T13:50:26.643Z,30.33
2017-12-08T13:52:55.052Z,24.37
2017-12-08T13:55:41.069Z,20.00
2017-12-08T13:58:09.230Z,24.63
2017-12-08T14:00:37.389Z,21.80
2017-12-08T14:03:05.667Z,22.67
2017-12-08T14:05:33.822Z,29.00
2017-12-08T14:08:02.031Z,22.23
2017-12-08T14:10:30.196Z,20.33
2017-12-08T14:12:58.383Z,19.33
2017-12-08T14:15:26.545Z,27.10
2017-12-08T14:17:54.727Z,20.97
2017-12-08T14:20:22.886Z,22.07
2017-12-08T14:22:51.045Z,18.00
2017-12-08T14:25:19.207Z,25.23
2017-12-08T14:27:47.364Z,24.90
2017-12-08T14:30:16.301Z,22.43
2017-12-08T14:32:44.462Z,21.60
2017-12-08T14:35:12.618Z,24.43
2017-12-08T14:37:41.554Z,21.13
2017-12-08T14:40:09.715Z,22.70
2017-12-08T14:42:37.889Z,24.63
2017-12-08T14:45:06.066Z,19.53
2017-12-08T14:47:34.259Z,25.53
2017-12-08T14:50:03.347Z,24.60
2017-12-08T14:52:31.522Z,23.53
2017-12-08T14:54:59.677Z,25.43
2017-12-08T14:57:27.839Z,25.30
2017-12-08T14:59:56.028Z,27.83
2017-12-08T15:02:24.188Z,25.93
2017-12-08T15:04:52.355Z,23.03
2017-12-08T15:07:21.275Z,26.17
2017-12-08T15:09:49.463Z,19.97
2017-12-08T15:12:17.644Z,24.97
2017-12-08T15:14:45.803Z,32.50
2017-12-08T15:17:13.974Z,23.40
2017-12-08T15:19:42.271Z,34.37
2017-12-08T15:22:10.440Z,27.93
2017-12-08T15:24:38.647Z,26.47
2017-12-08T15:27:06.822Z,24.50
2017-12-08T15:29:35.002Z,27.87
2017-12-08T15:32:03.952Z,32.23
2017-12-08T15:34:32.116Z,28.17
2017-12-08T15:37:00.289Z,24.07
2017-12-08T15:39:28.476Z,28.40
2017-12-08T15:41:56.639Z,23.17
2017-12-08T15:44:24.816Z,22.90
2017-12-08T15:46:52.974Z,25.37
2017-12-08T15:49:21.198Z,23.20
2017-12-08T15:51:49.539Z,22.87
2017-12-08T15:54:17.801Z,24.53
2017-12-08T15:56:45.972Z,21.90
2017-12-08T15:59:14.165Z,25.83
2017-12-08T16:01:42.356Z,24.30
2017-12-08T16:04:10.567Z,32.83
2017-12-08T16:06:38.744Z,29.57
2017-12-08T16:09:07.690Z,27.90
2017-12-08T16:11:35.874Z,21.10
2017-12-08T16:14:04.041Z,26.60
2017-12-08T16:16:32.222Z,22.47
2017-12-08T16:19:00.393Z,24.73
2017-12-08T16:21:28.571Z,27.03
2017-12-08T16:23:56.745Z,25.50
2017-12-08T16:26:24.911Z,24.47
2017-12-08T16:28:53.086Z,29.00
2017-12-08T16:31:21.270Z,26.10
2017-12-08T16:33:49.465Z,26.13
2017-12-08T16:36:18.585Z,28.73
2017-12-08T16:38:47.518Z,21.77
2017-12-08T16:41:15.706Z,25.63
2017-12-08T16:43:43.940Z,24.43
2017-12-08T16:46:12.906Z,24.07
2017-12-08T16:48:41.124Z,22.87
2017-12-08T16:51:09.297Z,19.27
2017-12-08T16:53:37.460Z,23.03
2017-12-08T16:56:06.393Z,32.03
2017-12-08T16:58:34.655Z,24.53
2017-12-08T17:01:02.934Z,21.57
2017-12-08T17:03:31.105Z,26.67
2017-12-08T17:05:59.274Z,26.27
2017-12-08T17:08:27.454Z,21.70
2017-12-08T17:10:55.610Z,25.10
2017-12-08T17:13:23.774Z,24.87
2017-12-08T17:15:52.725Z,31.90
2017-12-08T17:18:20.923Z,28.83
2017-12-08T17:20:49.181Z,32.53
2017-12-08T17:23:17.382Z,26.20
2017-12-08T17:25:46.355Z,35.00
2017-12-08T17:28:14.534Z,27.93
2017-12-08T17:30:42.760Z,24.00
2017-12-08T17:33:11.060Z,15.40
2017-12-08T17:35:39.269Z,9.80
2017-12-08T17:38:08.254Z,5.63
2017-12-08T17:40:36.452Z,6.07
2017-12-08T17:43:05.449Z,7.50
2017-12-08T17:45:34.435Z,8.50
2017-12-08T17:48:03.375Z,3.43
2017-12-08T17:50:31.575Z,11.00
2017-12-08T17:52:59.794Z,6.60
2017-12-08T17:55:27.991Z,7.10
2017-12-08T17:57:56.217Z,3.90
2017-12-08T18:00:24.462Z,4.37
2017-12-08T18:02:52.622Z,5.57
2017-12-08T18:05:20.833Z,29.50
2017-12-08T18:07:49.032Z,5.73
2017-12-08T18:10:18.056Z,5.83
2017-12-08T18:12:46.273Z,6.03
2017-12-08T18:15:14.584Z,6.30
2017-12-08T18:17:43.526Z,5.40
2017-12-08T18:20:11.711Z,9.20
2017-12-08T18:22:39.930Z,3.43
2017-12-08T18:25:08.906Z,5.83
2017-12-08T18:27:37.833Z,2.70
2017-12-08T18:30:06.088Z,7.13
2017-12-08T18:32:35.069Z,6.80
2017-12-08T18:35:04.032Z,3.47
2017-12-08T18:37:32.210Z,4.80
2017-12-08T18:40:00.423Z,4.10
2017-12-08T18:42:29.377Z,5.60
2017-12-08T18:44:57.574Z,4.73
2017-12-08T18:47:25.764Z,9.83
2017-12-08T18:49:54.745Z,5.20
2017-12-08T18:52:22.935Z,5.60
2017-12-08T18:54:51.946Z,4.70
2017-12-08T18:57:20.127Z,10.03
2017-12-08T18:59:48.385Z,5.43
2017-12-08T19:02:17.400Z,4.43
2017-12-08T19:04:45.575Z,2.33
2017-12-08T19:07:13.779Z,2.20
2017-12-08T19:09:41.966Z,4.40
2017-12-08T19:12:10.141Z,5.77
2017-12-08T19:14:38.327Z,2.20
2017-12-08T19:17:06.567Z,2.83
2017-12-08T19:19:34.834Z,2.33
2017-12-08T19:22:03.058Z,2.33
2017-12-08T19:24:31.279Z,2.03
2017-12-08T19:26:59.469Z,3.60
2017-12-08T19:29:27.653Z,4.93
2017-12-08T19:31:55.897Z,9.00
2017-12-08T19:34:24.072Z,5.13
2017-12-08T19:36:52.266Z,7.83
2017-12-08T19:39:20.472Z,5.40
2017-12-08T19:41:48.669Z,6.07
2017-12-08T19:44:17.624Z,6.87
2017-12-08T19:46:46.628Z,7.20
2017-12-08T19:49:14.815Z,4.97
2017-12-08T19:51:43.023Z,4.87
2017-12-08T19:54:11.187Z,5.40
2017-12-08T19:56:40.121Z,6.93
2017-12-08T19:59:08.311Z,6.30
2017-12-08T20:01:36.512Z,5.23
2017-12-08T20:04:04.775Z,7.50
2017-12-08T20:06:33.753Z,5.57
2017-12-08T20:09:01.941Z,9.60
2017-12-08T20:11:30.153Z,7.40
2017-12-08T20:13:59.095Z,6.47
2017-12-08T20:16:27.297Z,7.20
2017-12-08T20:18:55.496Z,7.70
2017-12-08T20:21:24.469Z,8.83
2017-12-08T20:23:52.669Z,13.87
2017-12-08T20:26:21.661Z,6.43
2017-12-08T20:28:49.827Z,10.47
2017-12-08T20:31:18.809Z,10.10
2017-12-08T20:33:47.786Z,8.90
2017-12-08T20:36:15.958Z,8.70
2017-12-08T20:38:44.163Z,11.30
2017-12-08T20:41:13.125Z,6.47
2017-12-08T20:43:41.305Z,10.00
2017-12-08T20:46:09.511Z,7.30
2017-12-08T20:48:38.484Z,10.60
2017-12-08T20:51:06.664Z,8.40
2017-12-08T20:53:35.648Z,9.80
2017-12-08T20:56:03.813Z,6.83
2017-12-08T20:58:32.002Z,6.17
2017-12-08T21:01:00.183Z,8.77
2017-12-08T21:03:29.150Z,6.87
2017-12-08T21:05:57.421Z,10.93
2017-12-08T21:08:25.601Z,7.70
2017-12-08T21:10:53.775Z,6.70
2017-12-08T21:13:21.960Z,5.87
2017-12-08T21:15:50.152Z,7.77
2017-12-08T21:18:19.177Z,7.70
2017-12-08T21:20:47.380Z,9.80
2017-12-08T21:23:15.597Z,9.60
2017-12-08T21:25:45.621Z,8.43
2017-12-08T21:28:14.603Z,8.47
2017-12-08T21:30:42.786Z,7.97
2017-12-08T21:33:11.813Z,6.50
2017-12-08T21:35:40.050Z,8.30
2017-12-08T21:38:09.015Z,7.43
2017-12-08T21:40:37.214Z,8.67
2017-12-08T21:43:05.387Z,6.70
2017-12-08T21:45:33.581Z,8.50
2017-12-08T21:48:02.552Z,9.70
2017-12-08T21:50:30.785Z,8.50
2017-12-08T21:52:58.993Z,8.80
2017-12-08T21:55:27.191Z,7.90
2017-12-08T21:57:56.223Z,6.80
2017-12-08T22:00:24.500Z,6.40
2017-12-08T22:02:52.770Z,8.70
2017-12-08T22:05:20.950Z,9.90
2017-12-08T22:07:49.148Z,8.03
2017-12-08T22:10:17.352Z,9.17
2017-12-08T22:12:45.569Z,10.70
2017-12-08T22:15:13.727Z,11.23
2017-12-08T22:17:42.662Z,9.97
2017-12-08T22:20:10.867Z,11.40
2017-12-08T22:22:39.031Z,10.23
2017-12-08T22:25:07.225Z,10.37
2017-12-08T22:27:36.173Z,8.87
2017-12-08T22:30:04.384Z,10.70
2017-12-08T22:32:32.565Z,10.10
2017-12-08T22:35:00.730Z,12.20
2017-12-08T22:37:28.915Z,9.63
2017-12-08T22:39:57.101Z,8.40
2017-12-08T22:42:27.617Z,10.37
2017-12-08T22:44:55.836Z,9.13
2017-12-08T22:47:23.992Z,9.80
2017-12-08T22:49:52.189Z,12.60
2017-12-08T22:52:20.392Z,10.53
2017-12-08T22:54:48.617Z,11.73
2017-12-08T22:57:17.585Z,12.27
2017-12-08T22:59:45.754Z,10.20
2017-12-08T23:02:13.923Z,11.50
2017-12-08T23:04:42.098Z,10.73
2017-12-08T23:07:10.268Z,10.70
2017-12-08T23:09:38.429Z,12.07
2017-12-08T23:12:06.616Z,11.30
2017-12-08T23:14:34.822Z,12.53
2017-12-08T23:17:03.056Z,10.60
2017-12-08T23:19:31.253Z,12.60
2017-12-08T23:21:59.432Z,14.80
2017-12-08T23:24:27.630Z,15.30
2017-12-08T23:26:56.554Z,13.03
2017-12-08T23:29:24.773Z,11.90
2017-12-08T23:31:52.976Z,17.27
2017-12-08T23:34:21.152Z,17.07
2017-12-08T23:36:49.343Z,15.77
2017-12-08T23:39:17.509Z,14.23
2017-12-08T23:41:45.710Z,15.37
2017-12-08T23:44:13.949Z,14.73
2017-12-08T23:46:42.902Z,11.30
2017-12-08T23:49:11.077Z,13.90
2017-12-08T23:51:39.288Z,16.27
2017-12-08T23:54:08.255Z,18.57
2017-12-08T23:56:36.482Z,19.13
2017-12-08T23:59:04.686Z,15.90
